Time;durP1;ratioP1;P1;durP2;ratioP2;P2;SDS_P1;SDS_P2;PMS_P1;PMS_P2;Temp;Humidity;BMP_temperature;BMP_pressure;BME280_temperature;BME280_humidity;BME280_pressure;Samples;Min_cycle;Max_cycle;Signal;HPM_P1;HPM_P2
2022/12/23 00:01:35;;;;;;;4.43;1.33;;;22.50;56.50;;;;;;4889841;29;20505;-66
2022/12/23 00:04:04;;;;;;;1.70;1.10;;;22.50;56.60;;;;;;4885482;29;20460;-67
2022/12/23 00:06:32;;;;;;;2.93;1.33;;;22.50;56.80;;;;;;4882755;29;20517;-66
2022/12/23 00:09:01;;;;;;;1.70;1.50;;;22.50;56.70;;;;;;4884725;29;20450;-69
2022/12/23 00:11:29;;;;;;;1.67;1.17;;;22.50;56.60;;;;;;4884172;29;20497;-67
2022/12/23 00:16:50;;;;;;;2.20;1.63;;;22.50;56.70;;;;;;4883096;29;21081;-67
2022/12/23 00:19:18;;;;;;;1.30;1.10;;;22.40;56.70;;;;;;4887141;29;20821;-66
2022/12/23 00:21:47;;;;;;;3.70;2.00;;;22.40;56.70;;;;;;4897258;29;20521;-69
2022/12/23 00:24:16;;;;;;;1.30;1.20;;;22.40;56.70;;;;;;4897392;29;20453;-70
2022/12/23 00:26:45;;;;;;;1.63;1.37;;;22.40;56.80;;;;;;4897523;29;20468;-66
2022/12/23 00:29:13;;;;;;;1.83;1.60;;;22.40;56.80;;;;;;4895875;29;20525;-67
2022/12/23 00:31:41;;;;;;;2.57;1.30;;;22.40;56.80;;;;;;4896377;29;20465;-69
2022/12/23 00:34:10;;;;;;;2.03;1.73;;;22.40;56.80;;;;;;4893720;29;20537;-71
2022/12/23 00:36:39;;;;;;;1.30;1.00;;;22.40;56.70;;;;;;4890127;29;20486;-67
2022/12/23 00:44:43;;;;;;;1.50;1.40;;;22.40;56.80;;;;;;4897744;29;20608;-69
2022/12/23 00:49:40;;;;;;;1.73;1.03;;;22.50;56.70;;;;;;4897028;29;20474;-66
2022/12/23 00:49:59;;;;;;;1.60;1.10;;;22.50;56.70;;;;;;4897849;29;20529;-66
2022/12/23 00:52:27;;;;;;;2.07;1.37;;;22.50;56.80;;;;;;4895353;29;20460;-66
2022/12/23 00:54:55;;;;;;;1.13;1.03;;;22.40;56.70;;;;;;4890171;29;20792;-69
2022/12/23 00:57:24;;;;;;;1.60;1.20;;;22.40;56.80;;;;;;4896557;29;20479;-66
2022/12/23 00:59:52;;;;;;;1.00;1.00;;;22.50;56.70;;;;;;4896029;29;20450;-66
2022/12/23 01:08:27;;;;;;;1.43;1.30;;;22.50;56.70;;;;;;5119713;27;20543;-66
2022/12/23 01:10:56;;;;;;;3.23;1.20;;;22.50;56.70;;;;;;5103274;28;20439;-69
2022/12/23 01:13:24;;;;;;;1.00;0.90;;;22.50;56.60;;;;;;5109634;28;20480;-65
2022/12/23 01:15:52;;;;;;;2.17;1.13;;;22.60;56.60;;;;;;5109423;28;20551;-68
2022/12/23 01:18:20;;;;;;;1.93;1.00;;;22.50;56.60;;;;;;5109071;28;20497;-65
2022/12/23 01:20:48;;;;;;;1.03;1.03;;;22.60;56.60;;;;;;5109717;28;20862;-66
2022/12/23 01:23:17;;;;;;;1.70;1.60;;;22.60;56.60;;;;;;5103644;28;20459;-66
2022/12/23 01:25:47;;;;;;;1.50;1.40;;;22.50;56.60;;;;;;5109754;28;20441;-66
2022/12/23 01:28:15;;;;;;;2.50;1.27;;;22.50;56.60;;;;;;5107960;28;20575;-66
2022/12/23 01:30:43;;;;;;;1.50;1.10;;;22.50;56.60;;;;;;5109159;28;20448;-65
2022/12/23 01:33:11;;;;;;;1.27;1.00;;;22.60;56.60;;;;;;5109783;28;20467;-66
2022/12/23 01:35:39;;;;;;;2.40;1.80;;;22.60;56.60;;;;;;5109023;28;20800;-66
2022/12/23 01:38:07;;;;;;;1.83;1.20;;;22.60;56.60;;;;;;5107879;28;20474;-66
2022/12/23 01:40:36;;;;;;;1.17;1.07;;;22.60;56.40;;;;;;5104689;28;21497;-65
2022/12/23 01:43:04;;;;;;;1.37;1.27;;;22.60;56.40;;;;;;5103918;28;20488;-71
2022/12/23 01:45:33;;;;;;;1.20;1.10;;;22.60;56.40;;;;;;5108634;28;20526;-65
2022/12/23 01:48:08;;;;;;;1.77;1.67;;;22.60;56.40;;;;;;5109077;28;20936;-68
2022/12/23 01:50:39;;;;;;;1.43;1.10;;;22.60;56.40;;;;;;5102473;28;20524;-66
2022/12/23 01:53:11;;;;;;;0.67;0.60;;;22.60;56.40;;;;;;5103776;28;20456;-65
2022/12/23 01:55:44;;;;;;;4.63;1.03;;;22.60;56.40;;;;;;5108788;28;20461;-66
2022/12/23 01:58:17;;;;;;;1.30;1.20;;;22.60;56.50;;;;;;5108686;28;20524;-65
2022/12/23 02:03:43;;;;;;;1.17;1.07;;;22.60;56.50;;;;;;5105039;28;20498;-66
2022/12/23 02:09:19;;;;;;;0.60;0.60;;;22.60;56.50;;;;;;5104943;28;20475;-69
2022/12/23 02:12:15;;;;;;;0.80;0.50;;;22.60;56.40;;;;;;5108380;28;20527;-66
2022/12/23 02:17:57;;;;;;;1.23;1.00;;;22.70;56.30;;;;;;5106801;28;20445;-66
2022/12/23 02:20:48;;;;;;;1.57;0.90;;;22.60;56.40;;;;;;5094350;28;20576;-69
2022/12/23 02:23:48;;;;;;;1.10;1.10;;;22.70;56.30;;;;;;5090252;28;20454;-66
2022/12/23 02:26:53;;;;;;;0.80;0.80;;;22.60;56.30;;;;;;5095224;28;20892;-66
2022/12/23 02:29:53;;;;;;;1.33;0.90;;;22.60;56.30;;;;;;5092674;28;20449;-67
2022/12/23 02:32:30;;;;;;;1.30;0.80;;;22.60;56.30;;;;;;5067220;28;20487;-70
2022/12/23 02:35:04;;;;;;;1.13;1.00;;;22.60;56.40;;;;;;5092529;28;20451;-66
2022/12/23 02:37:37;;;;;;;1.40;0.87;;;22.60;56.40;;;;;;5093565;28;20527;-66
2022/12/23 02:40:12;;;;;;;0.93;0.70;;;22.70;56.40;;;;;;5094181;28;21005;-67
2022/12/23 02:42:47;;;;;;;1.30;1.07;;;22.70;56.30;;;;;;5093845;28;20442;-66
2022/12/23 02:45:25;;;;;;;0.67;0.67;;;22.70;56.30;;;;;;5093138;28;20531;-66
2022/12/23 02:47:59;;;;;;;1.40;1.30;;;22.70;56.30;;;;;;5090456;28;20476;-67
2022/12/23 02:50:32;;;;;;;0.80;0.80;;;22.70;56.20;;;;;;5092974;28;20929;-66
2022/12/23 02:53:06;;;;;;;1.47;1.10;;;22.70;56.20;;;;;;5088394;28;20551;-66
2022/12/23 02:55:38;;;;;;;1.10;0.83;;;22.70;56.20;;;;;;5092017;28;20936;-66
2022/12/23 02:58:10;;;;;;;1.30;1.00;;;22.70;56.30;;;;;;5093864;28;20539;-67
2022/12/23 03:00:41;;;;;;;0.77;0.73;;;22.70;56.30;;;;;;5087713;28;20464;-66
2022/12/23 03:03:11;;;;;;;1.07;0.90;;;22.70;56.30;;;;;;5086469;28;20497;-67
2022/12/23 03:05:42;;;;;;;0.80;0.80;;;22.70;56.30;;;;;;5093661;28;20526;-68
2022/12/23 03:08:15;;;;;;;0.80;0.80;;;22.70;56.30;;;;;;5090340;28;20490;-69
2022/12/23 03:11:01;;;;;;;0.83;0.80;;;22.70;56.30;;;;;;5089678;28;20528;-65
2022/12/23 03:13:44;;;;;;;0.50;0.50;;;22.70;56.30;;;;;;5093672;28;20485;-65
2022/12/23 03:16:22;;;;;;;0.70;0.60;;;22.70;56.20;;;;;;5092621;28;20449;-65
2022/12/23 03:19:06;;;;;;;0.80;0.70;;;22.70;56.20;;;;;;5091866;28;20805;-67
2022/12/23 03:21:37;;;;;;;0.60;0.60;;;22.70;56.20;;;;;;5092669;28;20455;-65
2022/12/23 03:24:15;;;;;;;0.53;0.53;;;22.70;56.20;;;;;;5092349;28;20446;-65
2022/12/23 03:26:52;;;;;;;0.87;0.80;;;22.70;56.20;;;;;;5099782;28;20446;-66
2022/12/23 03:29:26;;;;;;;1.13;0.80;;;22.70;56.20;;;;;;5088273;28;20584;-67
2022/12/23 03:31:56;;;;;;;0.83;0.83;;;22.70;56.40;;;;;;5093405;28;20445;-67
2022/12/23 03:34:29;;;;;;;0.67;0.63;;;22.70;56.40;;;;;;5090070;28;20492;-65
2022/12/23 03:37:03;;;;;;;1.20;1.10;;;22.70;56.40;;;;;;5090314;28;20503;-65
2022/12/23 03:39:34;;;;;;;0.97;0.60;;;22.60;56.40;;;;;;5093200;28;20489;-66
2022/12/23 03:42:08;;;;;;;0.70;0.53;;;22.70;56.50;;;;;;5094915;28;20466;-66
2022/12/23 03:44:40;;;;;;;0.50;0.50;;;22.70;56.40;;;;;;5091310;28;20467;-65
2022/12/23 03:47:33;;;;;;;0.80;0.80;;;22.70;56.30;;;;;;5092451;28;20461;-69
2022/12/23 03:50:07;;;;;;;0.60;0.60;;;22.70;56.30;;;;;;5092452;28;20499;-65
2022/12/23 03:52:43;;;;;;;0.57;0.57;;;22.70;56.30;;;;;;5089893;28;20554;-67
2022/12/23 03:55:17;;;;;;;0.83;0.70;;;22.70;56.30;;;;;;5091980;28;20437;-66
2022/12/23 03:57:50;;;;;;;0.70;0.70;;;22.70;56.30;;;;;;5092256;28;20449;-67
2022/12/23 04:00:18;;;;;;;0.83;0.70;;;22.70;56.30;;;;;;5089667;28;20439;-66
2022/12/23 04:02:57;;;;;;;0.67;0.67;;;22.70;56.30;;;;;;5092288;28;20917;-66
2022/12/23 04:05:30;;;;;;;0.80;0.80;;;22.70;56.40;;;;;;5092105;28;20453;-65
2022/12/23 04:08:03;;;;;;;1.30;0.83;;;22.70;56.30;;;;;;5091801;28;20489;-68
2022/12/23 04:10:31;;;;;;;0.90;0.57;;;22.70;56.30;;;;;;5092371;28;20943;-66
2022/12/23 04:13:00;;;;;;;0.60;0.60;;;22.70;56.40;;;;;;5088436;28;20537;-71
2022/12/23 04:15:28;;;;;;;0.87;0.87;;;22.70;56.30;;;;;;5089651;28;20477;-68
2022/12/23 04:17:57;;;;;;;0.73;0.60;;;22.70;56.40;;;;;;5092343;28;20450;-66
2022/12/23 04:20:27;;;;;;;0.53;0.53;;;22.70;56.20;;;;;;5094427;28;20552;-66
2022/12/23 04:22:55;;;;;;;0.70;0.70;;;22.70;56.20;;;;;;5094690;28;20434;-68
2022/12/23 04:25:23;;;;;;;0.60;0.60;;;22.70;56.10;;;;;;5084671;28;20441;-66
2022/12/23 04:27:51;;;;;;;0.80;0.73;;;22.80;56.20;;;;;;5088015;28;20484;-66
2022/12/23 04:30:19;;;;;;;0.67;0.67;;;22.80;56.10;;;;;;5091642;28;20484;-68
2022/12/23 04:32:47;;;;;;;1.17;0.70;;;22.70;56.20;;;;;;5092785;28;20457;-66
2022/12/23 04:35:16;;;;;;;1.23;0.60;;;22.70;56.20;;;;;;5092330;28;20467;-66
2022/12/23 04:37:45;;;;;;;1.07;0.67;;;22.70;56.10;;;;;;5091645;28;20489;-67
2022/12/23 04:40:14;;;;;;;0.60;0.50;;;22.70;56.20;;;;;;5092155;28;20509;-70
2022/12/23 04:42:42;;;;;;;0.80;0.57;;;22.70;56.20;;;;;;5091293;28;20509;-66
2022/12/23 04:45:10;;;;;;;0.60;0.60;;;22.70;56.20;;;;;;5091620;28;20485;-68
2022/12/23 04:47:39;;;;;;;0.70;0.70;;;22.70;56.20;;;;;;5090988;28;20980;-69
2022/12/23 04:50:10;;;;;;;0.60;0.60;;;22.70;56.30;;;;;;5097986;28;20431;-65
2022/12/23 04:52:38;;;;;;;0.50;0.50;;;22.70;56.30;;;;;;5088699;28;20461;-70
2022/12/23 04:55:09;;;;;;;1.10;1.00;;;22.80;56.20;;;;;;5084368;28;20450;-66
2022/12/23 04:57:37;;;;;;;0.43;0.43;;;22.80;56.20;;;;;;5090128;28;20445;-68
2022/12/23 05:00:06;;;;;;;0.83;0.63;;;22.80;56.20;;;;;;5089748;28;20963;-65
2022/12/23 05:02:34;;;;;;;0.50;0.47;;;22.70;56.20;;;;;;5089974;28;20453;-66
2022/12/23 05:05:03;;;;;;;0.67;0.50;;;22.70;56.20;;;;;;5086851;28;20489;-66
2022/12/23 05:07:31;;;;;;;0.70;0.70;;;22.70;56.10;;;;;;5094302;28;20492;-67
2022/12/23 05:10:00;;;;;;;0.60;0.60;;;22.70;56.10;;;;;;5084787;28;20791;-65
2022/12/23 05:12:30;;;;;;;1.00;0.70;;;22.70;56.10;;;;;;5086706;28;20445;-67
2022/12/23 05:14:58;;;;;;;0.73;0.50;;;22.70;56.20;;;;;;5089811;28;20840;-66
2022/12/23 05:17:27;;;;;;;0.60;0.60;;;22.70;56.30;;;;;;5086940;28;20564;-68
2022/12/23 05:19:55;;;;;;;0.40;0.40;;;22.70;56.30;;;;;;5090627;28;20457;-67
2022/12/23 05:22:23;;;;;;;0.40;0.40;;;22.70;56.20;;;;;;5092510;28;20440;-67
2022/12/23 05:24:51;;;;;;;0.50;0.50;;;22.70;56.20;;;;;;5096626;28;20443;-66
2022/12/23 05:27:19;;;;;;;0.60;0.60;;;22.80;56.20;;;;;;5089049;28;20464;-66
2022/12/23 05:29:48;;;;;;;0.63;0.63;;;22.80;56.30;;;;;;5089267;28;20477;-67
2022/12/23 05:32:17;;;;;;;0.50;0.50;;;22.80;56.30;;;;;;5090117;28;20441;-69
2022/12/23 05:34:45;;;;;;;0.70;0.70;;;22.80;56.20;;;;;;5091136;28;20476;-68
2022/12/23 05:37:13;;;;;;;0.50;0.50;;;22.90;56.10;;;;;;5085354;28;20545;-65
2022/12/23 05:39:41;;;;;;;0.67;0.60;;;22.90;56.10;;;;;;5090704;28;20464;-67
2022/12/23 05:42:09;;;;;;;0.50;0.40;;;22.90;56.00;;;;;;5085546;28;20564;-67
2022/12/23 05:44:37;;;;;;;0.63;0.53;;;23.00;55.90;;;;;;5085500;28;20530;-66
2022/12/23 05:47:07;;;;;;;0.47;0.40;;;23.00;55.90;;;;;;5087809;28;20461;-70
2022/12/23 05:49:35;;;;;;;0.43;0.43;;;23.00;55.80;;;;;;5087456;28;20959;-67
2022/12/23 05:52:03;;;;;;;0.40;0.40;;;23.00;55.90;;;;;;5082537;28;20465;-68
2022/12/23 05:54:31;;;;;;;0.43;0.43;;;23.00;55.80;;;;;;5090898;28;20466;-68
2022/12/23 05:56:59;;;;;;;0.50;0.50;;;23.00;55.80;;;;;;5084558;28;20959;-66
2022/12/23 05:59:27;;;;;;;0.50;0.50;;;23.00;55.80;;;;;;5089823;28;20474;-66
2022/12/23 06:01:58;;;;;;;0.50;0.50;;;23.00;55.90;;;;;;5089355;28;20446;-66
2022/12/23 06:04:28;;;;;;;1.10;0.60;;;22.90;56.00;;;;;;5086687;28;20448;-68
2022/12/23 06:06:57;;;;;;;1.30;0.90;;;22.90;56.00;;;;;;5091230;28;20626;-67
2022/12/23 06:09:26;;;;;;;0.77;0.77;;;22.90;56.20;;;;;;5089253;28;20469;-66
2022/12/23 06:11:54;;;;;;;0.70;0.50;;;22.80;56.30;;;;;;5083676;28;20903;-67
2022/12/23 06:14:22;;;;;;;0.77;0.50;;;22.80;56.30;;;;;;5089602;28;20450;-67
2022/12/23 06:16:56;;;;;;;0.47;0.47;;;22.80;56.40;;;;;;5091088;28;20465;-67
2022/12/23 06:19:29;;;;;;;0.50;0.50;;;22.80;56.40;;;;;;5092488;28;20464;-67
2022/12/23 06:21:57;;;;;;;0.90;0.80;;;22.70;56.40;;;;;;5090786;28;20476;-68
2022/12/23 06:24:25;;;;;;;0.67;0.60;;;22.70;56.40;;;;;;5092918;28;20916;-67
2022/12/23 06:26:53;;;;;;;0.40;0.37;;;22.70;56.50;;;;;;5092461;28;20446;-68
2022/12/23 06:29:24;;;;;;;0.60;0.40;;;22.70;56.50;;;;;;5087002;28;20466;-67
2022/12/23 06:31:53;;;;;;;0.50;0.50;;;22.70;56.50;;;;;;5082570;28;20462;-69
2022/12/23 06:34:21;;;;;;;0.80;0.50;;;22.70;56.50;;;;;;5091016;28;20454;-70
2022/12/23 06:36:50;;;;;;;0.60;0.60;;;22.70;56.60;;;;;;5088792;28;20492;-69
2022/12/23 06:39:19;;;;;;;0.50;0.50;;;22.70;56.60;;;;;;5094790;28;20472;-71
2022/12/23 06:41:47;;;;;;;1.60;0.60;;;22.70;56.80;;;;;;5088104;28;20476;-67
2022/12/23 06:44:15;;;;;;;0.50;0.50;;;22.70;56.60;;;;;;5092192;28;20478;-68
2022/12/23 06:46:44;;;;;;;0.60;0.50;;;22.80;56.70;;;;;;5088637;28;20903;-69
2022/12/23 06:49:12;;;;;;;0.80;0.60;;;22.80;56.80;;;;;;5089332;28;20571;-68
2022/12/23 06:51:41;;;;;;;0.37;0.37;;;22.80;56.60;;;;;;5093703;28;20458;-70
2022/12/23 06:54:11;;;;;;;1.70;0.57;;;22.80;56.60;;;;;;5092102;28;20446;-67
2022/12/23 06:56:40;;;;;;;0.80;0.70;;;22.90;56.60;;;;;;5089028;28;20635;-69
2022/12/23 06:59:08;;;;;;;0.97;0.97;;;22.90;56.60;;;;;;5084639;28;20492;-67
2022/12/23 07:01:36;;;;;;;0.87;0.87;;;22.90;56.50;;;;;;5085890;28;20470;-69
2022/12/23 07:04:05;;;;;;;0.50;0.50;;;22.90;56.40;;;;;;5082342;28;20568;-66
2022/12/23 07:06:33;;;;;;;0.50;0.50;;;22.90;56.40;;;;;;5091469;28;20515;-69
2022/12/23 07:09:01;;;;;;;1.10;0.50;;;22.90;56.30;;;;;;5082133;28;20461;-69
2022/12/23 07:11:31;;;;;;;0.70;0.50;;;22.90;56.30;;;;;;5079014;28;20459;-67
2022/12/23 07:13:59;;;;;;;2.00;0.60;;;22.90;56.30;;;;;;5086768;28;20767;-67
2022/12/23 07:16:27;;;;;;;0.67;0.60;;;22.90;56.40;;;;;;5087739;28;20559;-67
2022/12/23 07:18:55;;;;;;;1.27;0.97;;;22.90;56.40;;;;;;5092280;28;20438;-67
2022/12/23 07:21:23;;;;;;;0.90;0.50;;;22.90;56.40;;;;;;5087476;28;20874;-67
2022/12/23 07:23:56;;;;;;;0.77;0.53;;;22.80;56.40;;;;;;5092230;28;21008;-68
2022/12/23 07:26:25;;;;;;;0.40;0.40;;;22.80;56.50;;;;;;5084140;28;20470;-69
2022/12/23 07:28:54;;;;;;;0.93;0.50;;;22.80;56.50;;;;;;5085514;28;20545;-67
2022/12/23 07:31:22;;;;;;;1.90;0.80;;;22.80;56.60;;;;;;5086991;28;20478;-71
2022/12/23 07:33:50;;;;;;;2.63;0.90;;;22.80;56.70;;;;;;5079735;28;20655;-69
2022/12/23 07:36:19;;;;;;;1.33;0.60;;;22.80;56.70;;;;;;5074814;28;20932;-69
2022/12/23 07:38:50;;;;;;;1.20;0.93;;;22.80;56.70;;;;;;5072491;28;20488;-66
2022/12/23 07:41:18;;;;;;;0.70;0.60;;;22.80;56.80;;;;;;5079641;28;20484;-66
2022/12/23 07:43:46;;;;;;;4.30;0.97;;;22.70;56.80;;;;;;5078950;28;20998;-66
2022/12/23 07:46:16;;;;;;;2.47;1.00;;;22.80;56.80;;;;;;5080809;28;20443;-66
2022/12/23 07:48:44;;;;;;;1.33;0.90;;;22.80;56.90;;;;;;5074516;28;20445;-67
2022/12/23 07:51:12;;;;;;;3.20;1.03;;;22.80;56.90;;;;;;5074189;28;20466;-67
2022/12/23 07:53:40;;;;;;;1.10;1.00;;;22.80;56.90;;;;;;5078109;28;20489;-68
2022/12/23 07:56:08;;;;;;;1.37;0.70;;;22.80;57.00;;;;;;5075279;28;20445;-68
2022/12/23 07:58:36;;;;;;;0.97;0.67;;;22.80;57.00;;;;;;5074225;28;20474;-67
2022/12/23 08:01:07;;;;;;;1.33;0.60;;;22.90;57.00;;;;;;5077902;28;20456;-66
2022/12/23 08:03:37;;;;;;;1.33;0.90;;;22.90;57.00;;;;;;5078475;28;20468;-67
2022/12/23 08:06:07;;;;;;;2.47;1.00;;;22.90;56.90;;;;;;5079360;28;20462;-69
2022/12/23 08:08:35;;;;;;;2.13;0.83;;;22.90;56.90;;;;;;5075509;28;20463;-66
2022/12/23 08:11:06;;;;;;;2.07;1.07;;;22.90;56.90;;;;;;5074485;28;20478;-67
2022/12/23 08:13:38;;;;;;;2.17;1.00;;;23.00;56.90;;;;;;5077698;28;20523;-66
2022/12/23 08:16:07;;;;;;;2.37;1.30;;;23.00;56.80;;;;;;5077220;28;20982;-68
2022/12/23 08:18:39;;;;;;;2.17;1.10;;;23.00;56.80;;;;;;5077494;28;20451;-66
2022/12/23 08:21:10;;;;;;;1.20;0.87;;;23.00;56.80;;;;;;5075722;28;20449;-67
2022/12/23 08:23:38;;;;;;;3.20;0.80;;;23.00;56.80;;;;;;5072317;28;20504;-66
2022/12/23 08:26:08;;;;;;;1.50;1.00;;;23.00;56.80;;;;;;5084199;28;20449;-68
2022/12/23 08:28:39;;;;;;;2.60;1.17;;;23.00;56.80;;;;;;5081755;28;20538;-67
2022/12/23 08:31:08;;;;;;;1.30;1.03;;;23.00;56.90;;;;;;5080840;28;20470;-67
2022/12/23 08:33:39;;;;;;;1.63;0.93;;;23.00;56.90;;;;;;5076919;28;20554;-67
2022/12/23 08:36:10;;;;;;;1.57;1.10;;;22.90;56.90;;;;;;5073527;28;20441;-67
2022/12/23 08:38:38;;;;;;;2.10;0.90;;;22.90;57.00;;;;;;5072126;28;20540;-67
2022/12/23 08:41:09;;;;;;;1.23;0.80;;;22.90;57.00;;;;;;5077047;28;20485;-67
2022/12/23 08:43:37;;;;;;;1.73;0.77;;;22.90;57.00;;;;;;5076906;28;20544;-67
2022/12/23 08:46:06;;;;;;;3.33;1.00;;;22.90;57.00;;;;;;5074258;28;20442;-66
2022/12/23 08:48:35;;;;;;;1.10;1.00;;;22.90;57.00;;;;;;5081950;28;20453;-67
2022/12/23 08:51:07;;;;;;;1.60;0.77;;;22.90;57.00;;;;;;5076281;28;20474;-67
2022/12/23 08:53:37;;;;;;;4.30;1.20;;;22.90;57.00;;;;;;5078576;28;20506;-67
2022/12/23 08:56:07;;;;;;;3.60;0.90;;;22.90;57.00;;;;;;5080143;28;20446;-68
2022/12/23 08:58:37;;;;;;;2.10;1.20;;;22.90;57.10;;;;;;5072611;28;20840;-68
2022/12/23 09:01:06;;;;;;;1.43;0.80;;;22.90;57.10;;;;;;5072611;28;20985;-68
2022/12/23 09:03:35;;;;;;;2.57;1.00;;;22.90;57.10;;;;;;5078521;28;20916;-70
2022/12/23 09:06:07;;;;;;;1.67;0.77;;;22.90;57.10;;;;;;5077516;28;20453;-67
2022/12/23 09:08:36;;;;;;;4.10;0.70;;;22.90;57.10;;;;;;5080043;28;20458;-71
2022/12/23 09:11:04;;;;;;;1.57;0.70;;;22.90;57.10;;;;;;5078174;28;20473;-70
2022/12/23 09:13:32;;;;;;;1.03;0.93;;;22.90;57.10;;;;;;5075137;28;20462;-71
2022/12/23 09:16:03;;;;;;;1.70;1.03;;;23.00;57.10;;;;;;5077430;28;20465;-68
2022/12/23 09:18:31;;;;;;;1.90;0.80;;;23.00;57.00;;;;;;5079090;28;20512;-71
2022/12/23 09:21:00;;;;;;;0.80;0.60;;;23.00;57.00;;;;;;5079798;28;20485;-67
2022/12/23 09:23:30;;;;;;;3.50;1.40;;;23.00;57.00;;;;;;5083716;28;20445;-69
2022/12/23 09:25:59;;;;;;;1.87;1.23;;;23.10;57.30;;;;;;5082187;28;20485;-67
2022/12/23 09:28:27;;;;;;;3.03;1.30;;;23.10;57.80;;;;;;5087882;28;20509;-69
2022/12/23 09:30:55;;;;;;;6.27;1.87;;;23.00;58.50;;;;;;5092115;28;20704;-65
2022/12/23 09:33:23;;;;;;;7.90;1.63;;;23.10;58.80;;;;;;5083264;28;20444;-66
2022/12/23 09:35:51;;;;;;;6.37;1.50;;;23.10;59.30;;;;;;5087137;28;20445;-67
2022/12/23 09:38:19;;;;;;;7.60;2.13;;;23.10;59.70;;;;;;5083679;28;20468;-66
2022/12/23 09:40:49;;;;;;;8.13;1.97;;;23.10;59.70;;;;;;5089726;28;20485;-67
2022/12/23 09:43:29;;;;;;;4.43;1.57;;;23.00;59.60;;;;;;5093028;28;20449;-66
2022/12/23 09:46:06;;;;;;;4.33;1.73;;;23.00;59.70;;;;;;5089005;28;20484;-66
2022/12/23 09:48:38;;;;;;;4.40;1.70;;;23.00;59.90;;;;;;5093407;28;20465;-67
2022/12/23 09:51:09;;;;;;;5.13;2.33;;;22.90;59.90;;;;;;5093716;28;20560;-67
2022/12/23 09:53:49;;;;;;;3.73;1.47;;;22.90;60.00;;;;;;5084986;28;20456;-66
2022/12/23 09:56:25;;;;;;;5.80;1.80;;;22.90;60.00;;;;;;5091015;28;20535;-67
2022/12/23 09:59:00;;;;;;;3.37;2.20;;;22.90;60.10;;;;;;5087954;28;21061;-67
2022/12/23 10:01:36;;;;;;;4.75;1.88;;;22.80;60.50;;;;;;5092763;28;20932;-67
2022/12/23 10:04:42;;;;;;;5.60;2.27;;;22.80;60.50;;;;;;5089303;28;20533;-65
2022/12/23 10:07:28;;;;;;;8.20;1.80;;;22.80;60.40;;;;;;5083999;28;20830;-65
2022/12/23 10:10:03;;;;;;;4.90;2.10;;;22.80;60.50;;;;;;5083218;28;20449;-68
2022/12/23 10:12:37;;;;;;;5.43;2.33;;;22.80;60.30;;;;;;5091065;28;20459;-67
2022/12/23 10:15:20;;;;;;;9.27;2.33;;;22.80;60.10;;;;;;5080357;28;20451;-71
2022/12/23 10:17:53;;;;;;;10.70;3.17;;;22.70;60.00;;;;;;5090265;28;20452;-68
2022/12/23 10:20:30;;;;;;;13.43;2.47;;;22.70;60.20;;;;;;5090536;28;20448;-69
2022/12/23 10:22:59;;;;;;;12.33;4.60;;;22.70;60.40;;;;;;5085917;28;20543;-70
2022/12/23 10:25:33;;;;;;;19.33;4.87;;;22.70;60.60;;;;;;5083086;28;20544;-69
2022/12/23 10:28:03;;;;;;;19.03;5.30;;;22.70;60.80;;;;;;5083580;28;20458;-66
2022/12/23 10:30:37;;;;;;;16.37;6.37;;;22.70;60.80;;;;;;5090770;28;20473;-66
2022/12/23 10:33:36;;;;;;;11.83;5.40;;;22.80;60.70;;;;;;5080394;28;20470;-68
2022/12/23 10:36:10;;;;;;;19.63;5.80;;;22.80;60.70;;;;;;5084428;28;20538;-66
2022/12/23 10:38:53;;;;;;;23.67;6.63;;;22.80;60.70;;;;;;5078215;28;20557;-66
2022/12/23 10:41:32;;;;;;;20.50;7.10;;;22.80;60.60;;;;;;5078582;28;20486;-67
2022/12/23 10:44:24;;;;;;;26.43;7.17;;;22.80;60.70;;;;;;5081507;28;20458;-67
2022/12/23 10:47:04;;;;;;;19.70;6.97;;;22.80;60.80;;;;;;5082295;28;20471;-66
2022/12/23 10:49:44;;;;;;;22.97;8.13;;;22.80;60.70;;;;;;5091511;28;20833;-67
2022/12/23 10:52:18;;;;;;;19.97;8.20;;;22.80;60.70;;;;;;5084574;28;20505;-68
2022/12/23 10:54:47;;;;;;;23.03;6.87;;;22.80;60.80;;;;;;5086816;28;20449;-66
2022/12/23 10:57:18;;;;;;;29.00;10.90;;;22.90;60.80;;;;;;5077738;28;20455;-68
2022/12/23 10:59:47;;;;;;;19.47;8.20;;;22.90;60.80;;;;;;5082583;28;20450;-67
2022/12/23 11:02:36;;;;;;;22.20;8.50;;;22.90;60.80;;;;;;5091193;28;21082;-67
2022/12/23 11:05:14;;;;;;;24.77;6.80;;;22.90;60.90;;;;;;5085943;28;20453;-66
2022/12/23 11:07:45;;;;;;;19.30;7.00;;;22.90;61.10;;;;;;5086806;28;20513;-67
2022/12/23 11:10:17;;;;;;;24.93;7.30;;;22.80;61.10;;;;;;5087690;28;20462;-67
2022/12/23 11:12:48;;;;;;;23.67;8.43;;;22.80;61.30;;;;;;5090343;28;20508;-67
2022/12/23 11:15:32;;;;;;;26.00;8.93;;;22.80;61.50;;;;;;5085862;28;20468;-67
2022/12/23 11:18:03;;;;;;;17.50;5.80;;;22.80;61.60;;;;;;5099796;28;20507;-68
2022/12/23 11:20:32;;;;;;;22.70;8.30;;;22.80;61.50;;;;;;5081705;28;21018;-67
2022/12/23 11:23:02;;;;;;;24.70;7.57;;;22.70;61.40;;;;;;5085910;28;20468;-68
2022/12/23 11:25:34;;;;;;;19.50;7.83;;;22.70;61.20;;;;;;5078576;28;20543;-67
2022/12/23 11:28:07;;;;;;;20.23;7.40;;;22.70;61.10;;;;;;5082846;28;20493;-68
2022/12/23 11:30:45;;;;;;;23.17;9.40;;;22.70;61.10;;;;;;5085934;28;20575;-68
2022/12/23 11:33:26;;;;;;;18.53;7.20;;;22.70;61.00;;;;;;5079427;28;20473;-66
2022/12/23 11:36:06;;;;;;;21.30;7.63;;;22.70;61.10;;;;;;5083006;28;20975;-67
2022/12/23 11:38:46;;;;;;;17.40;6.70;;;22.70;60.90;;;;;;5084313;28;20450;-68
2022/12/23 11:41:20;;;;;;;19.67;6.63;;;22.70;60.90;;;;;;5083220;28;20486;-67
2022/12/23 11:43:56;;;;;;;16.03;7.87;;;22.60;61.00;;;;;;5082675;28;20448;-67
2022/12/23 11:46:28;;;;;;;16.23;6.70;;;22.70;60.90;;;;;;5086026;28;20552;-66
2022/12/23 11:49:17;;;;;;;16.70;6.00;;;22.60;60.80;;;;;;5080459;28;20543;-68
2022/12/23 11:51:48;;;;;;;15.63;6.33;;;22.60;60.60;;;;;;5081275;28;20986;-70
2022/12/23 11:54:20;;;;;;;17.90;6.20;;;22.60;60.80;;;;;;5087472;28;20555;-66
2022/12/23 11:56:50;;;;;;;16.20;6.57;;;22.60;60.70;;;;;;5080636;28;20451;-67
2022/12/23 11:59:29;;;;;;;21.03;6.20;;;22.60;60.70;;;;;;5081297;28;20446;-69
2022/12/23 12:02:01;;;;;;;12.70;6.50;;;22.60;60.70;;;;;;5076585;28;20461;-66
2022/12/23 12:04:32;;;;;;;17.63;7.07;;;22.70;60.60;;;;;;5080886;28;20458;-67
2022/12/23 12:07:03;;;;;;;17.37;6.50;;;22.70;60.50;;;;;;5081678;28;20488;-72
2022/12/23 12:09:32;;;;;;;17.33;5.70;;;22.70;60.60;;;;;;5085184;28;20530;-66
2022/12/23 12:12:05;;;;;;;12.13;6.10;;;22.70;60.60;;;;;;5085563;28;20474;-67
2022/12/23 12:14:43;;;;;;;20.60;7.20;;;22.70;60.50;;;;;;5091805;28;20437;-66
2022/12/23 12:17:19;;;;;;;15.00;6.27;;;22.70;60.40;;;;;;5088311;28;20450;-67
2022/12/23 12:19:58;;;;;;;15.57;5.33;;;22.80;60.40;;;;;;5089105;28;20462;-67
2022/12/23 12:22:33;;;;;;;10.30;5.60;;;22.80;60.30;;;;;;5093106;28;20579;-66
2022/12/23 12:25:11;;;;;;;16.50;5.30;;;22.80;60.20;;;;;;5089960;28;20507;-70
2022/12/23 12:27:43;;;;;;;13.67;5.70;;;22.80;60.20;;;;;;5089236;28;21082;-66
2022/12/23 12:30:17;;;;;;;16.17;6.27;;;22.80;60.10;;;;;;5088795;28;20475;-67
2022/12/23 12:33:03;;;;;;;18.37;5.90;;;22.80;60.20;;;;;;5076048;28;20469;-68
2022/12/23 12:35:37;;;;;;;12.60;6.23;;;22.80;60.10;;;;;;5084365;28;20577;-66
2022/12/23 12:38:13;;;;;;;13.50;5.77;;;22.70;60.00;;;;;;5077216;28;20485;-67
2022/12/23 12:40:45;;;;;;;13.93;5.23;;;22.70;60.00;;;;;;5080462;28;20508;-68
2022/12/23 12:43:23;;;;;;;12.23;5.93;;;22.70;60.00;;;;;;5081015;28;20568;-68
2022/12/23 12:45:58;;;;;;;11.33;5.37;;;22.70;60.10;;;;;;5079937;28;20459;-68
2022/12/23 12:48:40;;;;;;;9.43;4.43;;;22.70;60.30;;;;;;5082838;28;20438;-68
2022/12/23 12:51:18;;;;;;;11.70;5.43;;;22.60;60.30;;;;;;5078609;28;20457;-66
2022/12/23 12:54:00;;;;;;;11.50;5.37;;;22.60;60.40;;;;;;5084759;28;20956;-68
2022/12/23 12:56:40;;;;;;;13.67;5.40;;;22.60;60.60;;;;;;5082425;28;20779;-67
2022/12/23 12:59:15;;;;;;;12.83;4.50;;;22.60;60.50;;;;;;5078928;28;20893;-69
2022/12/23 13:01:52;;;;;;;10.73;5.00;;;22.60;60.40;;;;;;5082275;28;20867;-67
2022/12/23 13:04:54;;;;;;;14.40;5.07;;;22.50;60.60;;;;;;5076974;28;20467;-70
2022/12/23 13:07:32;;;;;;;14.50;5.13;;;22.50;60.70;;;;;;5079757;28;20480;-66
2022/12/23 13:10:09;;;;;;;9.50;5.10;;;22.50;60.60;;;;;;5083959;28;20448;-67
2022/12/23 13:12:50;;;;;;;10.50;6.27;;;22.50;60.70;;;;;;5087665;28;20472;-66
2022/12/23 13:15:23;;;;;;;12.63;4.33;;;22.50;60.70;;;;;;5086355;28;20491;-66
2022/12/23 13:18:08;;;;;;;15.60;4.87;;;22.50;60.90;;;;;;5079754;28;20510;-67
2022/12/23 13:20:45;;;;;;;10.93;5.33;;;22.50;61.00;;;;;;5084432;28;20454;-68
2022/12/23 13:23:18;;;;;;;12.00;4.60;;;22.50;60.90;;;;;;5085474;28;20453;-68
2022/12/23 13:26:17;;;;;;;14.73;5.40;;;22.50;60.70;;;;;;5086073;28;20480;-70
2022/12/23 13:28:54;;;;;;;11.50;4.40;;;22.50;61.00;;;;;;5084509;28;20447;-68
2022/12/23 13:31:38;;;;;;;12.20;4.93;;;22.50;61.00;;;;;;5087293;28;20461;-66
2022/12/23 13:34:16;;;;;;;11.17;4.80;;;22.50;61.20;;;;;;5087492;28;20551;-66
2022/12/23 13:36:53;;;;;;;9.40;4.20;;;22.50;61.00;;;;;;5081204;28;20455;-69